Greenville, SC (29607)

10:09 AM EST on December 28, 2014 (GMT -0500)
Augusta Rd / Riverside Dr Area | Change Station
CLOSE
Current Station
Personal Weather Station
Location: Greenville, SC
Elevation: 967 ft
Nearby Weather Stations

Elev 967 ft 34.81 °N, 82.38 °W | Updated 2 minutes ago

Light Rain
Light Rain Mist
53.2 °F
Feels Like 53.2 °F
N
0.0
Wind Variable Wind from WNW
Gusts 1.0 mph

Today
High -- | Low -- °F
--% Chance of Precip.
Yesterday
High -- | Low -- °F
Precip. -- in
7:35 AM 5:26 PM
Waxing Crescent, 48% visible
Pressure 30.11 in
Visibility 1.0 miles
Clouds Overcast 200 ft
Dew Point 48 °F
Humidity 83%
Rainfall 0.09 in
Snow Depth Not available.
UV 0 out of 12
Pollen 1.80 out of 12
Air Quality Not available.
Flu Activity Not available.
METAR KGMU 281453Z 24005KT 1SM -RA BR OVC002 11/10 A3011 RMK AO2 SFC VIS 2 1/2 RAB26 SLP196 P0002 60004 T01060100 50005

More Conditions Fewer Conditions

Pressure 30.11 in
Visibility 1.0 miles
Clouds Overcast 200 ft
Dew Point 48 °F
Humidity 83%
Rainfall 0.09 in
Snow Depth Not available.
UV 0 out of 12
Pollen 1.80 out of 12
Air Quality Not available.
Flu Activity Not available.
METAR KGMU 281453Z 24005KT 1SM -RA BR OVC002 11/10 A3011 RMK AO2 SFC VIS 2 1/2 RAB26 SLP196 P0002 60004 T01060100 50005

More Conditions Fewer Conditions

10-Day Weather Forecast

Almanac

Astronomy

Dec. 28, 2014 Rise Set
Actual Time
Civil Twilight
Nautical Twilight
Astronomical Twilight
Moon
Length of Visible Light
Length of Day
Tomorrow will be .
, % of the Moon is Illuminated

Today's Extremes

State Highs State Lows

Community

WunderPhotos

Upload Photos

1,781,293 photos uploaded!

WunderBlogs® & News

Nearby

Air Quality

  Air Quality AQ Index Pollutant
Not available.

Snow Depth

Station Depth Elevation

Earthquake Activity

City Distance Mag. Time & Date
Minimum magnitude displayed is 2.5.

Coastal Water Temperatures

Place Temperature

Nearby Weather Stations